Time;durP1;ratioP1;P1;durP2;ratioP2;P2;SDS_P1;SDS_P2;PMS_P1;PMS_P2;Temp;Humidity;BMP_temperature;BMP_pressure;BME280_temperature;BME280_humidity;BME280_pressure;Samples;Min_cycle;Max_cycle;Signal;HPM_P1;HPM_P2
2023/07/18 00:02:16;;;;;;;8.40;5.85;;;18.20;99.90;;;;;;5050137;28;20084;-41
2023/07/18 00:04:43;;;;;;;7.47;6.10;;;18.10;99.90;;;;;;5048777;28;20041;-40
2023/07/18 00:07:10;;;;;;;8.93;6.05;;;18.10;99.90;;;;;;5048853;28;20068;-40
2023/07/18 00:09:38;;;;;;;9.73;6.65;;;18.00;99.90;;;;;;5045070;28;20044;-41
2023/07/18 00:12:05;;;;;;;7.63;6.45;;;18.00;99.90;;;;;;5050603;28;20112;-41
2023/07/18 00:14:33;;;;;;;13.43;7.43;;;17.90;99.90;;;;;;5049779;28;20441;-42
2023/07/18 00:17:00;;;;;;;12.18;7.28;;;17.90;99.90;;;;;;5049938;28;20818;-40
2023/07/18 00:19:29;;;;;;;9.75;7.18;;;17.80;99.90;;;;;;5049380;28;20190;-41
2023/07/18 00:21:57;;;;;;;9.50;6.63;;;17.80;99.90;;;;;;5049239;28;20059;-41
2023/07/18 00:24:24;;;;;;;8.38;6.60;;;17.70;99.90;;;;;;5047866;28;20049;-42
2023/07/18 00:26:52;;;;;;;9.13;6.50;;;17.60;99.90;;;;;;5049153;28;20544;-44
2023/07/18 00:29:19;;;;;;;7.60;6.60;;;17.50;99.90;;;;;;5030937;28;20048;-43
2023/07/18 00:31:47;;;;;;;7.47;6.55;;;17.40;99.90;;;;;;5049434;28;20131;-41
2023/07/18 00:34:14;;;;;;;7.40;6.13;;;17.30;99.90;;;;;;5046312;28;20053;-44
2023/07/18 00:36:42;;;;;;;12.57;6.70;;;17.30;99.90;;;;;;5031593;28;20051;-41
2023/07/18 00:39:09;;;;;;;7.88;6.15;;;17.20;99.90;;;;;;5049211;28;20052;-41
2023/07/18 00:41:37;;;;;;;12.00;6.07;;;17.20;99.90;;;;;;5048953;28;20060;-45
2023/07/18 00:44:04;;;;;;;8.05;5.82;;;17.20;99.90;;;;;;5047806;28;20033;-41
2023/07/18 00:46:32;;;;;;;6.57;5.65;;;17.20;99.90;;;;;;5048089;28;20423;-41
2023/07/18 00:48:59;;;;;;;7.90;6.03;;;17.10;99.90;;;;;;5030838;28;20053;-43
2023/07/18 00:51:27;;;;;;;8.23;6.50;;;17.10;99.90;;;;;;5049025;28;20036;-45
2023/07/18 00:53:54;;;;;;;7.60;6.35;;;17.10;99.90;;;;;;5049134;28;20129;-46
2023/07/18 00:56:23;;;;;;;8.45;5.97;;;17.00;99.90;;;;;;5047322;28;20098;-44
2023/07/18 00:58:53;;;;;;;9.45;6.65;;;16.90;99.90;;;;;;5047040;28;20178;-44
2023/07/18 01:01:21;;;;;;;9.00;6.22;;;16.80;99.90;;;;;;5046911;28;20056;-43
2023/07/18 01:03:49;;;;;;;10.50;6.47;;;16.70;99.90;;;;;;5029690;28;20079;-39
2023/07/18 01:06:18;;;;;;;8.45;6.57;;;16.70;99.90;;;;;;5027592;28;20125;-43
2023/07/18 01:08:46;;;;;;;8.88;6.40;;;16.60;99.90;;;;;;5027049;28;20053;-43
2023/07/18 01:11:14;;;;;;;10.40;6.20;;;16.60;99.90;;;;;;5046609;28;20111;-43
2023/07/18 01:13:41;;;;;;;10.00;6.55;;;16.60;99.90;;;;;;5049018;28;20682;-41
2023/07/18 01:16:08;;;;;;;8.30;6.07;;;16.50;99.90;;;;;;5048414;28;20048;-46
2023/07/18 01:18:38;;;;;;;11.52;5.90;;;16.50;99.90;;;;;;5039953;28;20044;-45
2023/07/18 01:21:09;;;;;;;8.00;6.30;;;16.40;99.90;;;;;;5047944;28;20136;-41
2023/07/18 01:23:36;;;;;;;8.68;6.47;;;16.40;99.90;;;;;;5029524;28;20065;-45
2023/07/18 01:26:03;;;;;;;11.35;6.55;;;16.40;99.90;;;;;;5047192;28;20708;-42
2023/07/18 01:28:31;;;;;;;8.40;6.30;;;16.40;99.90;;;;;;5047726;28;20120;-45
2023/07/18 01:30:58;;;;;;;9.15;6.10;;;16.40;99.90;;;;;;5046826;28;20107;-41
2023/07/18 01:33:27;;;;;;;13.55;6.18;;;16.40;99.90;;;;;;5030567;28;20045;-44
2023/07/18 01:35:54;;;;;;;9.57;5.97;;;16.30;99.90;;;;;;5042786;28;20061;-43
2023/07/18 01:38:21;;;;;;;7.10;6.22;;;16.30;99.90;;;;;;5029988;28;20094;-43
2023/07/18 01:40:49;;;;;;;8.60;6.07;;;16.30;99.90;;;;;;5048460;28;20052;-39
2023/07/18 01:43:16;;;;;;;10.05;6.03;;;16.20;99.90;;;;;;5046909;28;20076;-44
2023/07/18 01:45:43;;;;;;;6.75;6.05;;;16.20;99.90;;;;;;5046379;28;20330;-43
2023/07/18 01:48:11;;;;;;;10.45;6.88;;;16.20;99.90;;;;;;5027810;28;20061;-46
2023/07/18 01:50:38;;;;;;;8.45;6.20;;;16.20;99.90;;;;;;5028013;28;20825;-46
2023/07/18 01:53:06;;;;;;;11.05;6.07;;;16.10;99.90;;;;;;5045867;28;20060;-44
2023/07/18 01:55:34;;;;;;;10.55;7.30;;;16.10;99.90;;;;;;5047448;28;20135;-43
2023/07/18 01:58:01;;;;;;;8.23;6.07;;;16.10;99.90;;;;;;5025527;28;20053;-44
2023/07/18 02:00:30;;;;;;;10.63;6.50;;;16.10;99.90;;;;;;5027164;28;20049;-44
2023/07/18 02:02:58;;;;;;;9.60;6.32;;;16.10;99.90;;;;;;5045640;28;20044;-48
2023/07/18 02:05:28;;;;;;;11.30;6.40;;;16.10;99.90;;;;;;5045766;28;20047;-42
2023/07/18 02:07:57;;;;;;;10.68;6.13;;;16.10;99.90;;;;;;5048038;28;20060;-44
2023/07/18 02:10:25;;;;;;;9.90;6.95;;;16.10;99.90;;;;;;5025987;28;20095;-48
2023/07/18 02:12:54;;;;;;;7.95;6.40;;;16.00;99.90;;;;;;5047715;28;20080;-45
2023/07/18 02:15:22;;;;;;;8.50;6.40;;;16.00;99.90;;;;;;5026723;28;20081;-41
2023/07/18 02:17:51;;;;;;;9.88;5.93;;;16.00;99.90;;;;;;5047533;28;20127;-39
2023/07/18 02:20:18;;;;;;;7.55;6.05;;;16.00;99.90;;;;;;5028807;28;20099;-46
2023/07/18 02:22:47;;;;;;;9.25;6.20;;;15.90;99.90;;;;;;5026373;28;20095;-44
2023/07/18 02:25:17;;;;;;;7.47;6.05;;;15.90;99.90;;;;;;5026235;28;20037;-46
2023/07/18 02:27:46;;;;;;;10.98;6.63;;;15.90;99.90;;;;;;5025973;28;20481;-43
2023/07/18 02:30:14;;;;;;;9.15;6.80;;;15.80;99.90;;;;;;5046081;28;20044;-44
2023/07/18 02:32:43;;;;;;;11.23;6.45;;;15.80;99.90;;;;;;5046023;28;20099;-43
2023/07/18 02:35:17;;;;;;;9.25;6.32;;;15.80;99.90;;;;;;5046687;28;20124;-46
2023/07/18 02:37:46;;;;;;;11.48;7.38;;;15.80;99.90;;;;;;5045742;28;20279;-44
2023/07/18 02:40:17;;;;;;;10.30;6.78;;;15.70;99.90;;;;;;5047511;28;20044;-43
2023/07/18 02:42:45;;;;;;;9.68;7.00;;;15.70;99.90;;;;;;5047445;28;20076;-47
2023/07/18 02:45:13;;;;;;;9.38;6.45;;;15.60;99.90;;;;;;5041421;28;20088;-44
2023/07/18 02:47:40;;;;;;;9.20;6.10;;;15.60;99.90;;;;;;5047317;28;20362;-44
2023/07/18 02:50:09;;;;;;;10.55;6.40;;;15.50;99.90;;;;;;5050059;28;20044;-45
2023/07/18 02:52:36;;;;;;;8.20;6.32;;;15.50;99.90;;;;;;5046137;28;20115;-44
2023/07/18 02:55:04;;;;;;;9.02;7.05;;;15.50;99.90;;;;;;5049444;28;20435;-43
2023/07/18 02:57:31;;;;;;;8.95;6.50;;;15.50;99.90;;;;;;5048953;28;20381;-41
2023/07/18 02:59:59;;;;;;;9.80;6.13;;;15.40;99.90;;;;;;5033770;28;20041;-45
2023/07/18 03:02:31;;;;;;;8.38;6.32;;;15.40;99.90;;;;;;5050729;28;20577;-44
2023/07/18 03:04:59;;;;;;;10.10;6.55;;;15.40;99.90;;;;;;5031982;28;20041;-45
2023/07/18 03:07:26;;;;;;;8.57;6.80;;;15.30;99.90;;;;;;5050358;28;20354;-47
2023/07/18 03:09:54;;;;;;;9.15;6.47;;;15.40;99.90;;;;;;5048149;28;20041;-45
2023/07/18 03:12:21;;;;;;;10.40;6.20;;;15.30;99.90;;;;;;5051612;28;20472;-46
2023/07/18 03:14:50;;;;;;;13.27;7.47;;;15.20;99.90;;;;;;5050158;28;20053;-40
2023/07/18 03:17:17;;;;;;;10.25;6.40;;;15.20;99.90;;;;;;5051907;28;20041;-42
2023/07/18 03:19:44;;;;;;;8.68;6.38;;;15.20;99.90;;;;;;5049371;28;20063;-43
2023/07/18 03:22:13;;;;;;;10.18;6.43;;;15.20;99.90;;;;;;5050256;28;20129;-45
2023/07/18 03:24:40;;;;;;;10.15;7.07;;;15.10;99.90;;;;;;5051258;28;20421;-42
2023/07/18 03:27:08;;;;;;;10.63;6.68;;;15.10;99.90;;;;;;5051921;28;20049;-43
2023/07/18 03:29:35;;;;;;;10.10;6.25;;;15.00;99.90;;;;;;5051872;28;20545;-39
2023/07/18 03:32:02;;;;;;;9.18;6.32;;;15.00;99.90;;;;;;5031478;28;20044;-43
2023/07/18 03:34:31;;;;;;;11.43;7.00;;;15.00;99.90;;;;;;5048669;28;20051;-45
2023/07/18 03:36:58;;;;;;;10.27;6.82;;;15.00;99.90;;;;;;5048539;28;20155;-43
2023/07/18 03:39:26;;;;;;;8.43;6.55;;;15.00;99.90;;;;;;5049754;28;20072;-45
2023/07/18 03:41:53;;;;;;;9.48;7.07;;;15.00;99.90;;;;;;5050419;28;20474;-40
2023/07/18 03:44:20;;;;;;;10.32;6.70;;;15.10;99.90;;;;;;5049683;28;20049;-41
2023/07/18 03:46:48;;;;;;;9.52;7.28;;;15.10;99.90;;;;;;5049794;28;20673;-43
2023/07/18 03:49:19;;;;;;;11.43;6.15;;;15.10;99.90;;;;;;5049483;28;20066;-44
2023/07/18 03:51:46;;;;;;;12.27;7.20;;;15.20;99.90;;;;;;5050228;28;20051;-45
2023/07/18 03:54:13;;;;;;;10.27;6.93;;;15.20;99.90;;;;;;5050769;28;20049;-42
2023/07/18 03:56:41;;;;;;;10.55;6.50;;;15.30;99.90;;;;;;5049782;28;20045;-48
2023/07/18 03:59:08;;;;;;;10.07;7.15;;;15.30;99.90;;;;;;5049166;28;20473;-42
2023/07/18 04:01:36;;;;;;;9.88;6.60;;;15.40;99.90;;;;;;5046720;28;20131;-44
2023/07/18 04:04:03;;;;;;;9.90;6.57;;;15.40;99.90;;;;;;5048601;28;20064;-43
2023/07/18 04:06:32;;;;;;;10.48;6.80;;;15.40;99.90;;;;;;5049010;28;20076;-45
2023/07/18 04:08:59;;;;;;;8.80;6.38;;;15.50;99.90;;;;;;5043838;28;20453;-46
2023/07/18 04:11:27;;;;;;;11.25;7.50;;;15.50;99.90;;;;;;5049141;28;20052;-43
2023/07/18 04:13:54;;;;;;;11.10;7.45;;;15.60;99.90;;;;;;5050712;28;20045;-41
2023/07/18 04:16:21;;;;;;;9.88;7.90;;;15.70;99.90;;;;;;5049956;28;20466;-43
2023/07/18 04:18:53;;;;;;;11.10;7.93;;;15.70;99.90;;;;;;5047455;28;20052;-45
2023/07/18 04:21:21;;;;;;;11.55;7.68;;;15.80;99.90;;;;;;5049691;28;20299;-41
2023/07/18 04:23:48;;;;;;;10.07;7.18;;;15.80;99.90;;;;;;5050816;28;20075;-45
2023/07/18 04:26:17;;;;;;;9.70;7.40;;;15.90;99.90;;;;;;5046559;28;20049;-43
2023/07/18 04:28:44;;;;;;;8.07;7.22;;;15.90;99.90;;;;;;5049925;28;20076;-41
2023/07/18 04:31:13;;;;;;;11.13;7.30;;;16.10;99.90;;;;;;5047959;28;20137;-44
2023/07/18 04:33:43;;;;;;;10.90;7.15;;;16.20;99.90;;;;;;5050210;28;20102;-42
2023/07/18 04:36:11;;;;;;;9.38;7.05;;;16.30;99.90;;;;;;5048842;28;20132;-42
2023/07/18 04:38:38;;;;;;;9.65;6.78;;;16.40;99.90;;;;;;5050791;28;20049;-45
2023/07/18 04:41:05;;;;;;;11.50;7.05;;;16.40;99.90;;;;;;5048340;28;20136;-48
2023/07/18 04:43:33;;;;;;;7.55;5.57;;;16.40;99.90;;;;;;5047834;28;20091;-47
2023/07/18 04:46:00;;;;;;;8.27;6.75;;;16.50;99.90;;;;;;5048152;28;20127;-45
2023/07/18 04:48:28;;;;;;;13.60;7.05;;;16.50;99.90;;;;;;5048776;28;20112;-49
2023/07/18 04:51:01;;;;;;;9.07;6.90;;;16.60;99.90;;;;;;5049204;28;20459;-43
2023/07/18 04:53:31;;;;;;;9.05;6.95;;;16.70;99.90;;;;;;5047653;28;20451;-44
2023/07/18 04:55:59;;;;;;;9.18;6.65;;;16.70;99.90;;;;;;5047325;28;20140;-46
2023/07/18 04:58:28;;;;;;;8.88;6.90;;;16.80;99.90;;;;;;5040176;28;20102;-43
2023/07/18 05:00:56;;;;;;;10.02;7.15;;;16.90;99.90;;;;;;5044110;28;20041;-39
2023/07/18 05:03:25;;;;;;;10.02;7.28;;;17.00;99.90;;;;;;5044922;28;20048;-47
2023/07/18 05:05:53;;;;;;;10.25;7.70;;;17.00;99.90;;;;;;5044159;28;20064;-43
2023/07/18 05:08:21;;;;;;;9.02;7.53;;;17.00;99.90;;;;;;5043631;28;20120;-43
2023/07/18 05:10:49;;;;;;;11.55;7.80;;;17.00;99.90;;;;;;5042520;28;20091;-43
2023/07/18 05:13:16;;;;;;;10.25;8.02;;;17.10;99.90;;;;;;5046036;28;20060;-44
2023/07/18 05:15:44;;;;;;;9.63;6.72;;;17.00;99.90;;;;;;5046536;28;20079;-45
2023/07/18 05:18:12;;;;;;;9.73;7.07;;;17.10;99.90;;;;;;5046290;28;20053;-41
2023/07/18 05:20:39;;;;;;;9.65;7.13;;;17.20;99.90;;;;;;5044404;28;20052;-45
2023/07/18 05:23:06;;;;;;;14.70;7.60;;;17.30;99.90;;;;;;5043358;28;20073;-44
2023/07/18 05:25:34;;;;;;;11.57;7.55;;;17.30;99.90;;;;;;5048422;28;20087;-42
2023/07/18 05:28:05;;;;;;;12.52;7.65;;;17.40;99.90;;;;;;5043740;28;20073;-46
2023/07/18 05:30:32;;;;;;;8.98;7.10;;;17.40;99.90;;;;;;5045120;28;20518;-39
2023/07/18 05:33:00;;;;;;;9.23;7.65;;;17.50;99.90;;;;;;5045642;28;20511;-39
2023/07/18 05:35:27;;;;;;;15.13;9.13;;;17.50;99.90;;;;;;5046191;28;20486;-41
2023/07/18 05:37:56;;;;;;;16.80;8.05;;;17.60;99.90;;;;;;5039318;28;21666;-43
2023/07/18 05:40:23;;;;;;;14.68;6.70;;;17.70;99.90;;;;;;5031276;28;20113;-45
2023/07/18 05:42:51;;;;;;;10.95;6.38;;;17.80;99.90;;;;;;5044820;28;20080;-43
2023/07/18 05:45:19;;;;;;;9.07;6.78;;;17.90;99.90;;;;;;5041268;28;20071;-41
2023/07/18 05:47:46;;;;;;;13.70;7.00;;;17.90;99.90;;;;;;5045981;28;20053;-43
2023/07/18 05:50:14;;;;;;;11.35;6.82;;;18.00;99.90;;;;;;5042142;28;20045;-41
2023/07/18 05:52:41;;;;;;;10.73;8.02;;;18.10;99.90;;;;;;5047354;28;20548;-42
2023/07/18 05:55:10;;;;;;;10.70;6.68;;;18.20;99.90;;;;;;5046874;28;20076;-41
2023/07/18 05:57:37;;;;;;;9.20;6.68;;;18.30;99.90;;;;;;5042391;28;20398;-39
2023/07/18 06:00:06;;;;;;;11.85;7.90;;;18.30;99.90;;;;;;5048450;28;20124;-41
2023/07/18 06:02:38;;;;;;;9.32;7.55;;;18.40;99.90;;;;;;5043612;28;20053;-46
2023/07/18 06:05:06;;;;;;;18.00;7.90;;;18.50;99.90;;;;;;5043800;28;20150;-41
2023/07/18 06:07:34;;;;;;;43.10;11.43;;;18.60;99.90;;;;;;5040994;28;20135;-40
2023/07/18 06:10:01;;;;;;;79.30;13.82;;;18.90;99.90;;;;;;5025755;28;20426;-41
2023/07/18 06:12:29;;;;;;;54.10;12.75;;;19.10;99.90;;;;;;5044131;28;20117;-45
2023/07/18 06:14:57;;;;;;;10.55;6.38;;;19.30;99.90;;;;;;5045733;28;20504;-44
2023/07/18 06:17:25;;;;;;;13.43;7.00;;;19.40;99.90;;;;;;5043966;28;20445;-45
2023/07/18 06:19:52;;;;;;;9.48;6.93;;;19.30;99.90;;;;;;5043314;28;20458;-45
2023/07/18 06:22:19;;;;;;;8.63;7.15;;;19.30;99.90;;;;;;5042526;28;20069;-46
2023/07/18 06:24:47;;;;;;;9.23;7.05;;;19.30;99.90;;;;;;5046812;28;20041;-48
2023/07/18 06:27:14;;;;;;;9.48;6.88;;;19.40;99.90;;;;;;5042651;28;20037;-49
2023/07/18 06:29:44;;;;;;;13.85;8.60;;;19.40;99.90;;;;;;5043951;28;20091;-46
2023/07/18 06:32:12;;;;;;;9.15;7.20;;;19.40;99.90;;;;;;5044908;28;20053;-43
2023/07/18 06:34:40;;;;;;;8.60;6.97;;;19.50;99.90;;;;;;5039133;28;20045;-47
2023/07/18 06:37:08;;;;;;;9.40;7.07;;;19.50;99.90;;;;;;5041870;28;20464;-50
2023/07/18 06:39:38;;;;;;;10.98;8.05;;;19.50;99.90;;;;;;5039928;28;20049;-46
2023/07/18 06:42:08;;;;;;;14.65;7.30;;;19.50;99.90;;;;;;5027337;28;20052;-48
2023/07/18 06:44:36;;;;;;;11.32;7.90;;;19.60;99.90;;;;;;5044547;28;20124;-45
2023/07/18 06:47:04;;;;;;;11.00;7.30;;;19.70;99.90;;;;;;5029084;28;20049;-44
2023/07/18 06:49:31;;;;;;;10.27;7.07;;;19.70;99.90;;;;;;5044500;28;20153;-46
2023/07/18 06:51:58;;;;;;;8.02;7.32;;;19.80;99.90;;;;;;5045683;28;20071;-48
2023/07/18 06:54:26;;;;;;;10.13;7.28;;;19.80;99.90;;;;;;5040890;28;20174;-47
2023/07/18 06:56:53;;;;;;;10.32;7.32;;;19.90;99.90;;;;;;5045823;28;20142;-45
2023/07/18 06:59:20;;;;;;;11.20;7.63;;;20.00;99.90;;;;;;5045320;28;20102;-46
2023/07/18 07:01:48;;;;;;;7.95;7.15;;;20.00;99.90;;;;;;5047203;28;20053;-47
2023/07/18 07:04:17;;;;;;;14.88;7.07;;;20.10;99.90;;;;;;5029056;28;20049;-47
2023/07/18 07:06:44;;;;;;;9.00;7.07;;;20.10;99.90;;;;;;5048006;28;20032;-45
2023/07/18 07:09:13;;;;;;;10.45;6.75;;;20.20;99.90;;;;;;5044079;28;20055;-49
2023/07/18 07:11:41;;;;;;;7.30;6.53;;;20.20;99.90;;;;;;5047250;28;20049;-46
2023/07/18 07:14:11;;;;;;;8.88;6.93;;;20.30;99.90;;;;;;5046857;28;20049;-43
2023/07/18 07:16:39;;;;;;;9.02;6.35;;;20.40;99.90;;;;;;5041824;28;20457;-44
2023/07/18 07:19:07;;;;;;;9.18;6.55;;;20.50;99.90;;;;;;5046626;28;20068;-47
2023/07/18 07:21:35;;;;;;;8.48;6.47;;;20.60;99.90;;;;;;5045434;28;20345;-45
2023/07/18 07:24:02;;;;;;;8.73;6.63;;;20.70;99.90;;;;;;5045503;28;20044;-46
2023/07/18 07:26:30;;;;;;;10.52;7.20;;;20.70;99.90;;;;;;5045488;28;20367;-45
2023/07/18 07:28:57;;;;;;;9.27;7.88;;;20.80;99.90;;;;;;5045679;28;20049;-49
2023/07/18 07:31:24;;;;;;;9.50;7.75;;;20.90;99.90;;;;;;5046212;28;20048;-49
2023/07/18 07:33:53;;;;;;;10.45;7.10;;;21.00;99.90;;;;;;5047336;28;20037;-46
2023/07/18 07:36:21;;;;;;;10.07;7.57;;;21.00;99.90;;;;;;5047714;28;20071;-46
2023/07/18 07:38:49;;;;;;;12.73;7.93;;;21.20;99.90;;;;;;5045824;28;20041;-47
2023/07/18 07:41:16;;;;;;;10.07;7.55;;;21.30;99.90;;;;;;5049341;28;20106;-47
2023/07/18 07:43:44;;;;;;;9.40;7.28;;;21.40;99.90;;;;;;5048953;28;20525;-50
2023/07/18 07:46:11;;;;;;;10.27;7.10;;;21.30;99.90;;;;;;5049520;28;20455;-43
2023/07/18 07:48:39;;;;;;;8.63;7.00;;;21.30;99.90;;;;;;5048529;28;20068;-47
2023/07/18 07:51:06;;;;;;;7.78;6.97;;;21.40;99.90;;;;;;5049368;28;20041;-43
2023/07/18 07:53:34;;;;;;;11.18;7.57;;;21.50;99.90;;;;;;5048473;28;20045;-43
2023/07/18 07:56:01;;;;;;;10.05;6.97;;;21.50;99.90;;;;;;5047228;28;20068;-49
2023/07/18 07:58:28;;;;;;;9.07;6.55;;;21.50;99.90;;;;;;5047403;28;20045;-49
2023/07/18 08:00:55;;;;;;;8.13;6.90;;;21.60;99.90;;;;;;5049351;28;20071;-47
2023/07/18 08:03:23;;;;;;;8.63;7.00;;;21.60;99.90;;;;;;5047999;28;20114;-48
2023/07/18 08:05:50;;;;;;;12.27;7.45;;;21.80;99.90;;;;;;5048314;28;20037;-46
2023/07/18 08:08:18;;;;;;;16.17;12.85;;;21.80;99.90;;;;;;5045874;28;20087;-46
2023/07/18 08:10:45;;;;;;;12.35;8.52;;;21.90;99.90;;;;;;5043919;28;20045;-46
2023/07/18 08:13:16;;;;;;;9.80;6.93;;;22.00;99.90;;;;;;5048954;28;20506;-47
2023/07/18 08:15:44;;;;;;;7.85;6.68;;;22.00;99.90;;;;;;5049380;28;20409;-50
2023/07/18 08:18:11;;;;;;;10.05;7.03;;;22.10;99.90;;;;;;5047788;28;20053;-46
2023/07/18 08:20:39;;;;;;;11.40;6.80;;;22.10;99.90;;;;;;5031505;28;20048;-44
2023/07/18 08:23:07;;;;;;;7.53;6.50;;;22.10;99.90;;;;;;5049367;28;20053;-47
2023/07/18 08:25:34;;;;;;;10.73;6.70;;;22.20;99.90;;;;;;5045754;28;20053;-46
2023/07/18 08:28:01;;;;;;;8.70;6.80;;;22.30;99.90;;;;;;5046917;28;20417;-43
2023/07/18 08:30:29;;;;;;;11.82;6.78;;;22.30;99.90;;;;;;5049158;28;20417;-46
2023/07/18 08:32:56;;;;;;;9.45;7.03;;;22.30;99.90;;;;;;5048064;28;20041;-46
2023/07/18 08:35:24;;;;;;;17.00;6.75;;;22.40;99.90;;;;;;5049544;28;20071;-46
2023/07/18 08:37:51;;;;;;;10.75;6.97;;;22.50;99.90;;;;;;5049239;28;20044;-49
2023/07/18 08:40:18;;;;;;;8.23;6.90;;;22.50;99.90;;;;;;5048316;28;20460;-46
2023/07/18 08:42:47;;;;;;;11.45;6.80;;;22.50;99.90;;;;;;5047415;28;20057;-46
2023/07/18 08:45:15;;;;;;;9.45;6.70;;;22.60;99.90;;;;;;5045695;28;20102;-44
2023/07/18 08:47:45;;;;;;;10.75;7.13;;;22.80;99.90;;;;;;5048143;28;20124;-44
2023/07/18 08:50:13;;;;;;;9.15;6.50;;;22.90;99.90;;;;;;5048229;28;20091;-45
2023/07/18 08:52:41;;;;;;;8.95;6.72;;;22.90;99.90;;;;;;5048181;28;20697;-42
2023/07/18 08:55:09;;;;;;;10.05;6.93;;;22.80;99.90;;;;;;5047290;28;20041;-47
2023/07/18 08:57:39;;;;;;;9.38;6.47;;;22.80;99.90;;;;;;5043866;28;20037;-43
2023/07/18 09:00:07;;;;;;;7.78;6.38;;;22.90;99.90;;;;;;5046532;28;20049;-44
2023/07/18 09:02:37;;;;;;;8.57;6.30;;;23.10;99.90;;;;;;5047154;28;20524;-46
2023/07/18 09:05:04;;;;;;;8.98;6.65;;;23.30;99.90;;;;;;5045974;28;20767;-47
2023/07/18 09:07:36;;;;;;;9.70;6.55;;;23.50;99.90;;;;;;5046151;28;20532;-48
2023/07/18 09:10:04;;;;;;;7.57;5.82;;;23.50;99.90;;;;;;5040177;28;20096;-47
2023/07/18 09:12:35;;;;;;;6.65;5.72;;;23.50;99.90;;;;;;5047820;28;20040;-48
2023/07/18 09:15:03;;;;;;;9.10;6.25;;;23.50;99.90;;;;;;5048131;28;20076;-44
2023/07/18 09:17:32;;;;;;;7.38;6.40;;;23.50;99.90;;;;;;5046556;28;20029;-47
2023/07/18 09:20:07;;;;;;;7.43;5.70;;;23.60;99.90;;;;;;5047763;28;20072;-49
2023/07/18 09:22:36;;;;;;;8.50;6.70;;;23.70;99.90;;;;;;5046801;28;20043;-46
2023/07/18 09:25:04;;;;;;;6.43;5.78;;;23.90;99.90;;;;;;5048315;28;20072;-50
2023/07/18 09:27:35;;;;;;;12.80;6.97;;;23.90;99.90;;;;;;5047515;28;20557;-46
2023/07/18 09:30:02;;;;;;;8.50;6.30;;;24.10;99.90;;;;;;5046907;28;20128;-45
2023/07/18 09:32:31;;;;;;;8.52;6.78;;;24.20;99.90;;;;;;5048343;28;20059;-44
2023/07/18 09:35:00;;;;;;;7.85;6.00;;;24.40;99.90;;;;;;5047929;28;20440;-47
2023/07/18 09:37:29;;;;;;;9.98;6.80;;;24.40;99.30;;;;;;5048024;28;20045;-43
2023/07/18 09:39:56;;;;;;;8.80;6.20;;;24.40;99.60;;;;;;5047032;28;20517;-46
2023/07/18 09:42:24;;;;;;;7.30;5.93;;;24.40;99.00;;;;;;5046640;28;20457;-47
2023/07/18 09:44:52;;;;;;;9.60;6.45;;;24.40;99.10;;;;;;5043357;28;20123;-44
2023/07/18 09:47:20;;;;;;;8.00;6.32;;;24.40;98.60;;;;;;5044803;28;20037;-47
2023/07/18 09:49:50;;;;;;;9.93;6.43;;;24.50;98.30;;;;;;5047701;28;20178;-44
2023/07/18 09:52:22;;;;;;;7.75;6.25;;;24.80;97.40;;;;;;5046534;28;20472;-47
2023/07/18 09:54:52;;;;;;;8.75;6.60;;;25.00;96.80;;;;;;5047586;28;20047;-46
2023/07/18 09:57:21;;;;;;;7.60;6.35;;;25.10;96.30;;;;;;5046325;28;20044;-44
2023/07/18 09:59:49;;;;;;;7.88;6.60;;;25.20;96.10;;;;;;5045774;28;20421;-45
2023/07/18 10:02:17;;;;;;;7.78;6.32;;;25.40;96.20;;;;;;5043709;28;20050;-45
2023/07/18 10:04:45;;;;;;;8.48;6.47;;;25.50;96.30;;;;;;5047069;28;20052;-43
2023/07/18 10:07:13;;;;;;;8.85;6.60;;;25.40;96.30;;;;;;5046239;28;20455;-46
2023/07/18 10:09:40;;;;;;;9.43;6.78;;;25.50;96.10;;;;;;5044884;28;20056;-44
2023/07/18 10:12:09;;;;;;;8.15;6.65;;;25.50;95.50;;;;;;5045393;28;20036;-50
2023/07/18 10:14:42;;;;;;;7.93;6.45;;;25.50;95.40;;;;;;5041423;28;20375;-44
2023/07/18 10:17:44;;;;;;;7.95;6.22;;;25.50;95.20;;;;;;5045925;28;20049;-46
2023/07/18 10:20:18;;;;;;;12.23;7.10;;;25.70;94.80;;;;;;5047034;28;20122;-46
2023/07/18 10:22:57;;;;;;;8.70;6.50;;;25.70;94.60;;;;;;5044963;28;20036;-46
2023/07/18 10:25:29;;;;;;;8.25;6.50;;;25.60;94.60;;;;;;5045007;28;20558;-45
2023/07/18 10:27:59;;;;;;;9.00;6.57;;;25.70;94.10;;;;;;5046735;28;20048;-44
2023/07/18 10:30:42;;;;;;;7.47;6.72;;;25.70;94.40;;;;;;5046964;28;20135;-47
2023/07/18 10:33:10;;;;;;;8.68;7.10;;;25.90;94.20;;;;;;5045979;28;20568;-50
2023/07/18 10:35:44;;;;;;;8.50;6.40;;;26.10;94.10;;;;;;5045661;28;20390;-46
2023/07/18 10:38:13;;;;;;;9.32;6.68;;;26.20;94.40;;;;;;5044931;28;20433;-47
2023/07/18 10:40:43;;;;;;;7.95;7.18;;;26.50;94.10;;;;;;5046248;28;20140;-48
2023/07/18 10:43:20;;;;;;;7.65;6.70;;;26.80;93.90;;;;;;5043360;28;20571;-41
2023/07/18 10:45:47;;;;;;;8.18;7.05;;;26.60;93.30;;;;;;5047434;28;20044;-50
2023/07/18 10:48:17;;;;;;;10.13;7.03;;;26.60;93.30;;;;;;5046598;28;20456;-48
2023/07/18 10:50:47;;;;;;;9.35;6.78;;;26.60;93.30;;;;;;5047966;28;20204;-46
2023/07/18 10:53:18;;;;;;;9.02;6.85;;;26.90;93.40;;;;;;5046191;28;20049;-47
2023/07/18 10:55:47;;;;;;;9.35;6.47;;;27.20;92.80;;;;;;5047833;28;20052;-47
2023/07/18 10:58:16;;;;;;;7.18;6.47;;;27.50;92.40;;;;;;5047223;28;20041;-50
2023/07/18 11:00:44;;;;;;;8.45;6.13;;;27.50;91.80;;;;;;5046754;28;20049;-47
2023/07/18 11:03:35;;;;;;;10.77;6.78;;;27.80;91.70;;;;;;5047006;28;20045;-42
2023/07/18 11:06:06;;;;;;;9.77;6.75;;;28.00;91.40;;;;;;5043966;28;20044;-47
2023/07/18 11:08:34;;;;;;;7.87;6.70;;;27.80;91.00;;;;;;5045489;28;20050;-48
2023/07/18 11:11:03;;;;;;;8.60;7.15;;;27.90;90.80;;;;;;5047717;28;20098;-47
2023/07/18 11:13:35;;;;;;;8.13;6.95;;;28.20;90.60;;;;;;5050657;28;20514;-46
2023/07/18 11:16:15;;;;;;;7.13;6.40;;;28.50;89.50;;;;;;5047748;28;20624;-44
2023/07/18 11:18:45;;;;;;;9.40;6.97;;;29.00;88.60;;;;;;5046464;28;20053;-45
2023/07/18 11:21:16;;;;;;;8.00;6.53;;;29.40;87.40;;;;;;5049985;28;20111;-47
2023/07/18 11:23:44;;;;;;;7.60;6.78;;;29.80;86.00;;;;;;5049737;28;20045;-43
2023/07/18 11:26:15;;;;;;;10.23;6.80;;;29.50;84.80;;;;;;5049336;28;20102;-47
2023/07/18 11:28:44;;;;;;;7.72;6.85;;;29.50;83.90;;;;;;5050326;28;20531;-49
2023/07/18 11:31:32;;;;;;;7.72;6.97;;;29.60;83.70;;;;;;5049832;28;20099;-46
2023/07/18 11:34:02;;;;;;;9.05;7.07;;;29.70;83.30;;;;;;5050637;28;20131;-46
2023/07/18 11:36:32;;;;;;;10.10;6.90;;;29.60;82.60;;;;;;5047906;28;20086;-49
2023/07/18 11:39:06;;;;;;;7.32;6.60;;;30.50;81.10;;;;;;5050278;28;20144;-46
2023/07/18 11:41:34;;;;;;;7.97;6.43;;;31.10;79.50;;;;;;5049802;28;20421;-43
2023/07/18 11:44:03;;;;;;;7.00;6.30;;;31.30;77.90;;;;;;5048961;28;20045;-42
2023/07/18 11:46:49;;;;;;;10.25;7.55;;;31.00;77.80;;;;;;5048978;28;20378;-46
2023/07/18 11:49:16;;;;;;;9.73;8.48;;;30.90;77.20;;;;;;5049685;28;20037;-42
2023/07/18 11:51:43;;;;;;;8.27;7.15;;;30.90;77.30;;;;;;5050180;28;20099;-48
2023/07/18 11:54:11;;;;;;;8.32;7.00;;;31.40;77.20;;;;;;5050343;28;20092;-46
2023/07/18 11:56:38;;;;;;;8.55;6.65;;;32.10;75.40;;;;;;5050304;28;20546;-47
2023/07/18 11:59:07;;;;;;;8.30;6.93;;;32.80;73.50;;;;;;5049388;28;20540;-48
2023/07/18 12:01:34;;;;;;;7.80;7.00;;;33.20;72.60;;;;;;5049509;28;20490;-43
2023/07/18 12:04:14;;;;;;;9.00;7.15;;;33.20;71.00;;;;;;5049479;28;20052;-47
2023/07/18 12:06:41;;;;;;;8.75;7.85;;;33.50;70.80;;;;;;5043433;28;20069;-48
2023/07/18 12:09:08;;;;;;;8.05;6.95;;;34.40;69.30;;;;;;5047310;28;20080;-48
2023/07/18 12:11:36;;;;;;;7.85;7.10;;;34.50;67.40;;;;;;5048626;28;20040;-44
2023/07/18 12:14:06;;;;;;;10.85;7.75;;;34.00;66.60;;;;;;5047454;28;20051;-45
2023/07/18 12:16:33;;;;;;;7.90;7.10;;;33.70;66.70;;;;;;5050351;28;20041;-43
2023/07/18 12:19:01;;;;;;;7.90;7.00;;;33.60;67.20;;;;;;5048549;28;20076;-43
2023/07/18 12:21:28;;;;;;;7.88;7.10;;;33.70;65.90;;;;;;5050835;28;20421;-47
2023/07/18 12:23:55;;;;;;;7.85;7.15;;;34.10;66.00;;;;;;5048073;28;20045;-42
2023/07/18 12:26:22;;;;;;;9.80;7.40;;;33.50;66.40;;;;;;5049500;28;20124;-46
2023/07/18 12:28:54;;;;;;;7.95;7.28;;;33.30;66.70;;;;;;5049115;28;20120;-48
2023/07/18 12:31:21;;;;;;;9.00;6.70;;;33.00;66.60;;;;;;5047290;28;20635;-48
2023/07/18 12:33:49;;;;;;;8.18;7.22;;;31.90;67.50;;;;;;5048585;28;20048;-45
2023/07/18 12:36:16;;;;;;;7.85;7.13;;;31.60;68.20;;;;;;5045628;28;20120;-47
2023/07/18 12:38:44;;;;;;;7.32;6.72;;;31.80;68.10;;;;;;5048366;28;20119;-48
2023/07/18 12:41:11;;;;;;;8.50;7.45;;;32.20;67.90;;;;;;5047217;28;20063;-46
2023/07/18 12:43:38;;;;;;;8.88;7.63;;;32.20;67.70;;;;;;5047347;28;20133;-49
2023/07/18 12:46:06;;;;;;;8.52;7.13;;;31.80;68.00;;;;;;5048266;28;20048;-43
2023/07/18 12:48:33;;;;;;;9.82;7.47;;;31.80;68.40;;;;;;5048842;28;20491;-44
2023/07/18 12:51:03;;;;;;;7.93;7.00;;;31.70;68.80;;;;;;5048155;28;20071;-46